Time;durP1;ratioP1;P1;durP2;ratioP2;P2;SDS_P1;SDS_P2;PMS_P1;PMS_P2;Temp;Humidity;BMP_temperature;BMP_pressure;BME280_temperature;BME280_humidity;BME280_pressure;Samples;Min_cycle;Max_cycle;Signal;HPM_P1;HPM_P2
2022/08/31 00:04:01;;;;;;;3.90;1.43;;;15.90;75.80;;;;;;5073125;28;20407;-55
2022/08/31 00:06:30;;;;;;;1.13;0.83;;;15.90;76.00;;;;;;5073249;28;20522;-55
2022/08/31 00:08:57;;;;;;;1.03;0.83;;;15.90;76.10;;;;;;5072865;28;20463;-55
2022/08/31 00:11:29;;;;;;;0.90;0.77;;;15.90;76.20;;;;;;5072782;28;20479;-56
2022/08/31 00:13:57;;;;;;;2.47;1.17;;;15.80;76.20;;;;;;5073145;28;20949;-55
2022/08/31 00:16:28;;;;;;;1.03;0.73;;;15.80;76.40;;;;;;5073288;28;20486;-55
2022/08/31 00:18:55;;;;;;;1.00;0.90;;;15.80;76.50;;;;;;5073113;28;20465;-55
2022/08/31 00:21:23;;;;;;;1.43;1.13;;;15.90;76.70;;;;;;5072953;28;20479;-56
2022/08/31 00:23:50;;;;;;;1.80;0.90;;;15.80;76.70;;;;;;5073717;28;20543;-56
2022/08/31 00:26:18;;;;;;;0.90;0.70;;;15.80;76.80;;;;;;5075943;28;20542;-56
2022/08/31 00:28:46;;;;;;;1.10;0.80;;;15.80;77.00;;;;;;5076926;28;20553;-56
2022/08/31 00:31:13;;;;;;;1.20;1.00;;;15.80;77.10;;;;;;5077196;28;20529;-55
2022/08/31 00:33:43;;;;;;;1.50;0.80;;;15.80;77.20;;;;;;5076791;28;20538;-55
2022/08/31 00:36:12;;;;;;;1.00;0.87;;;15.80;77.40;;;;;;5077002;28;20558;-56
2022/08/31 00:38:40;;;;;;;1.93;0.80;;;15.70;77.50;;;;;;5077083;28;20470;-56
2022/08/31 00:41:09;;;;;;;1.37;1.10;;;15.70;77.70;;;;;;5077124;28;20470;-55
2022/08/31 00:43:42;;;;;;;1.63;0.97;;;15.70;77.80;;;;;;5076491;28;20533;-55
2022/08/31 00:46:11;;;;;;;1.80;1.00;;;15.70;77.90;;;;;;5076792;28;20438;-55
2022/08/31 00:48:44;;;;;;;1.43;1.07;;;15.70;78.10;;;;;;5076840;28;20491;-56
2022/08/31 00:51:12;;;;;;;1.20;0.80;;;15.70;78.30;;;;;;5076880;28;20450;-55
2022/08/31 00:53:40;;;;;;;2.07;1.00;;;15.60;78.40;;;;;;5076744;28;20884;-55
2022/08/31 00:56:08;;;;;;;1.10;0.87;;;15.60;78.70;;;;;;5076930;28;20565;-55
2022/08/31 00:58:35;;;;;;;1.47;0.80;;;15.60;78.90;;;;;;5102958;22;20581;-57
2022/08/31 01:01:05;;;;;;;1.60;1.10;;;15.60;79.20;;;;;;5080140;28;20530;-56
2022/08/31 01:03:33;;;;;;;1.70;0.93;;;15.60;79.40;;;;;;5079646;28;20896;-56
2022/08/31 01:06:02;;;;;;;1.40;0.90;;;15.50;79.50;;;;;;5079143;28;20471;-56
2022/08/31 01:08:30;;;;;;;1.10;0.90;;;15.60;79.90;;;;;;5078292;28;20506;-56
2022/08/31 01:10:58;;;;;;;0.90;0.70;;;15.50;80.00;;;;;;5078158;28;20870;-57
2022/08/31 01:13:26;;;;;;;1.13;1.03;;;15.50;80.40;;;;;;5077449;28;20482;-57
2022/08/31 01:15:58;;;;;;;0.80;0.70;;;15.50;80.60;;;;;;5076530;28;20474;-57
2022/08/31 01:18:26;;;;;;;0.83;0.73;;;15.50;81.00;;;;;;5076336;28;20518;-58
2022/08/31 01:21:00;;;;;;;1.53;1.10;;;15.50;81.80;;;;;;5076290;28;20538;-57
2022/08/31 01:23:33;;;;;;;2.80;1.33;;;15.40;81.50;;;;;;5077907;28;20434;-57
2022/08/31 01:26:02;;;;;;;1.77;1.00;;;15.40;81.70;;;;;;5076673;28;20420;-57
2022/08/31 01:28:30;;;;;;;2.03;1.10;;;15.40;82.00;;;;;;5075885;28;20471;-56
2022/08/31 01:31:04;;;;;;;1.87;1.20;;;15.40;82.20;;;;;;5075985;28;20546;-57
2022/08/31 01:33:31;;;;;;;2.13;1.00;;;15.30;82.60;;;;;;5076189;28;20517;-57
2022/08/31 01:35:59;;;;;;;1.20;0.90;;;15.30;83.00;;;;;;5076272;28;20562;-57
2022/08/31 01:38:29;;;;;;;1.20;0.87;;;15.30;83.30;;;;;;5075438;28;20900;-57
2022/08/31 01:41:00;;;;;;;1.27;1.17;;;15.20;83.60;;;;;;5077071;28;20522;-57
2022/08/31 01:43:28;;;;;;;0.90;0.73;;;15.20;84.10;;;;;;5076732;28;20431;-58
2022/08/31 01:45:56;;;;;;;1.23;1.00;;;15.20;84.50;;;;;;5076079;28;20523;-57
2022/08/31 01:48:24;;;;;;;1.73;1.07;;;15.20;84.90;;;;;;5076076;28;21017;-58
2022/08/31 01:50:51;;;;;;;1.03;0.87;;;15.10;85.20;;;;;;5075839;28;20471;-57
2022/08/31 01:53:18;;;;;;;1.67;1.07;;;15.10;85.70;;;;;;5076363;28;20462;-57
2022/08/31 01:55:47;;;;;;;1.33;1.23;;;15.10;86.10;;;;;;5076383;28;20478;-57
2022/08/31 01:58:14;;;;;;;1.60;1.10;;;15.10;86.60;;;;;;5076108;28;20546;-58
2022/08/31 02:00:42;;;;;;;1.53;1.10;;;15.10;87.10;;;;;;5075827;28;20780;-58
2022/08/31 02:03:10;;;;;;;1.40;1.10;;;15.00;87.40;;;;;;5075927;28;20805;-57
2022/08/31 02:05:38;;;;;;;1.50;1.03;;;15.00;88.00;;;;;;5075964;28;20519;-57
2022/08/31 02:08:09;;;;;;;1.10;0.90;;;15.00;88.60;;;;;;5076047;28;20443;-56
2022/08/31 02:10:37;;;;;;;1.93;1.17;;;14.90;88.90;;;;;;5075241;28;20470;-57
2022/08/31 02:13:06;;;;;;;1.30;1.00;;;14.90;89.70;;;;;;5075543;28;20534;-57
2022/08/31 02:15:34;;;;;;;1.87;1.40;;;14.80;90.10;;;;;;5075157;28;21001;-57
2022/08/31 02:18:01;;;;;;;1.20;0.87;;;14.80;90.40;;;;;;5075325;28;20478;-57
2022/08/31 02:20:28;;;;;;;1.13;0.90;;;14.70;90.60;;;;;;5075080;28;20983;-57
2022/08/31 02:22:55;;;;;;;1.87;1.10;;;14.70;90.90;;;;;;5075348;28;20542;-57
2022/08/31 02:25:23;;;;;;;1.67;1.10;;;14.60;91.20;;;;;;5075046;28;20445;-57
2022/08/31 02:27:50;;;;;;;1.30;0.93;;;14.60;91.40;;;;;;5074953;28;20526;-57
2022/08/31 02:30:20;;;;;;;1.90;1.30;;;14.60;91.70;;;;;;5074914;28;20558;-57
2022/08/31 02:32:47;;;;;;;7.00;1.07;;;14.50;92.00;;;;;;5074956;28;20522;-57
2022/08/31 02:35:14;;;;;;;1.17;1.07;;;14.50;92.20;;;;;;5074498;28;20933;-57
2022/08/31 02:37:41;;;;;;;2.50;1.10;;;14.50;92.30;;;;;;5074604;28;20478;-56
2022/08/31 02:40:10;;;;;;;1.80;1.30;;;14.40;92.50;;;;;;5074530;28;20561;-57
2022/08/31 02:42:38;;;;;;;3.20;1.30;;;14.40;92.70;;;;;;5074863;28;20497;-57
2022/08/31 02:45:06;;;;;;;1.13;0.90;;;14.40;92.90;;;;;;5074309;28;20483;-57
2022/08/31 02:47:35;;;;;;;1.20;1.00;;;14.30;93.00;;;;;;5074565;28;20522;-57
2022/08/31 02:50:02;;;;;;;2.27;1.20;;;14.30;93.20;;;;;;5073073;28;20473;-58
2022/08/31 02:52:29;;;;;;;2.20;1.20;;;14.30;93.30;;;;;;5074111;28;21042;-57
2022/08/31 02:54:57;;;;;;;1.53;1.23;;;14.30;93.50;;;;;;5074527;28;20479;-57
2022/08/31 02:57:24;;;;;;;1.23;0.87;;;14.30;93.60;;;;;;5074161;28;20483;-57
2022/08/31 02:59:51;;;;;;;1.23;1.10;;;14.20;93.70;;;;;;5073860;28;20914;-58
2022/08/31 03:02:18;;;;;;;1.30;1.20;;;14.20;93.90;;;;;;5074343;28;20530;-57
2022/08/31 03:04:47;;;;;;;1.10;0.93;;;14.20;94.00;;;;;;5074492;28;20535;-57
2022/08/31 03:07:14;;;;;;;1.40;1.30;;;14.10;94.20;;;;;;5074199;28;20512;-57
2022/08/31 03:09:41;;;;;;;1.47;1.03;;;14.10;94.30;;;;;;5074227;28;20463;-57
2022/08/31 03:12:08;;;;;;;1.00;0.80;;;14.10;94.50;;;;;;5074313;28;20444;-57
2022/08/31 03:14:36;;;;;;;2.10;1.30;;;14.10;94.60;;;;;;5073874;28;20904;-57
2022/08/31 03:17:03;;;;;;;1.07;0.97;;;14.10;94.70;;;;;;5073993;28;20573;-57
2022/08/31 03:19:30;;;;;;;1.37;1.00;;;14.10;94.80;;;;;;5073892;28;20554;-58
2022/08/31 03:21:59;;;;;;;2.03;1.07;;;14.10;94.90;;;;;;5073560;28;20573;-57
2022/08/31 03:24:27;;;;;;;4.13;1.10;;;14.00;95.00;;;;;;5074034;28;20450;-58
2022/08/31 03:26:54;;;;;;;3.00;1.50;;;14.00;95.10;;;;;;5074028;28;20443;-57
2022/08/31 03:29:21;;;;;;;1.53;1.30;;;14.00;95.30;;;;;;5073921;28;20467;-57
2022/08/31 03:31:48;;;;;;;1.33;1.23;;;13.90;95.40;;;;;;5073826;28;20992;-56
2022/08/31 03:34:16;;;;;;;1.03;0.90;;;13.90;95.60;;;;;;5073557;28;20994;-57
2022/08/31 03:36:43;;;;;;;1.37;1.20;;;13.80;95.70;;;;;;5073998;28;20566;-57
2022/08/31 03:39:11;;;;;;;1.50;1.40;;;13.80;96.00;;;;;;5073794;28;20466;-57
2022/08/31 03:41:39;;;;;;;1.93;1.00;;;13.80;96.20;;;;;;5073926;28;20554;-57
2022/08/31 03:44:06;;;;;;;2.53;1.30;;;13.70;96.60;;;;;;5073226;28;21006;-57
2022/08/31 03:46:34;;;;;;;1.50;1.00;;;13.70;96.50;;;;;;5073206;28;20546;-57
2022/08/31 03:49:01;;;;;;;1.90;1.30;;;13.70;96.70;;;;;;5073017;28;20463;-58
2022/08/31 03:51:29;;;;;;;1.57;1.27;;;13.60;96.70;;;;;;5073556;28;20522;-57
2022/08/31 03:53:56;;;;;;;4.43;1.30;;;13.60;97.00;;;;;;5073269;28;20535;-57
2022/08/31 03:56:25;;;;;;;3.03;1.43;;;13.60;97.10;;;;;;5072959;28;20577;-57
2022/08/31 03:58:53;;;;;;;1.90;1.53;;;13.50;97.30;;;;;;5073127;28;20566;-57
2022/08/31 04:01:21;;;;;;;1.47;1.23;;;13.50;97.40;;;;;;5072786;28;20542;-57
2022/08/31 04:03:48;;;;;;;1.27;1.17;;;13.50;97.60;;;;;;5073035;28;20487;-56
2022/08/31 04:06:15;;;;;;;1.53;1.20;;;13.50;97.80;;;;;;5073338;28;20853;-57
2022/08/31 04:10:12;;;;;;;2.03;1.50;;;13.40;97.90;;;;;;5091043;27;20598;-58
2022/08/31 04:12:39;;;;;;;1.70;1.30;;;13.40;98.10;;;;;;5091199;28;20494;-58
2022/08/31 04:15:08;;;;;;;1.13;1.00;;;13.40;98.30;;;;;;5091035;28;20488;-58
2022/08/31 04:17:35;;;;;;;2.60;1.50;;;13.40;98.50;;;;;;5090996;28;20546;-57
2022/08/31 04:20:03;;;;;;;1.90;1.20;;;13.30;98.60;;;;;;5090498;28;20969;-57
2022/08/31 04:22:30;;;;;;;2.90;1.50;;;13.30;98.80;;;;;;5091099;28;20496;-58
2022/08/31 04:24:57;;;;;;;1.63;1.37;;;13.30;98.90;;;;;;5090685;28;20478;-58
2022/08/31 04:27:26;;;;;;;2.00;1.20;;;13.30;99.10;;;;;;5090596;28;20442;-57
2022/08/31 04:29:53;;;;;;;1.43;1.27;;;13.30;99.20;;;;;;5090238;28;20568;-58
2022/08/31 04:32:20;;;;;;;1.40;1.30;;;13.20;99.30;;;;;;5090564;28;20447;-58
2022/08/31 04:34:47;;;;;;;2.57;1.10;;;13.30;99.50;;;;;;5090515;28;20446;-58
2022/08/31 04:37:14;;;;;;;1.87;1.67;;;13.30;99.60;;;;;;5090195;28;20549;-58
2022/08/31 04:39:43;;;;;;;1.57;1.47;;;13.30;99.70;;;;;;5090092;28;20933;-59
2022/08/31 04:42:11;;;;;;;2.33;1.53;;;13.40;99.70;;;;;;5090581;28;20545;-58
2022/08/31 04:44:40;;;;;;;1.37;1.03;;;13.40;99.70;;;;;;5090336;28;20525;-55
2022/08/31 04:47:07;;;;;;;1.90;1.23;;;13.50;99.70;;;;;;5090643;28;20549;-58
2022/08/31 04:49:34;;;;;;;1.67;1.30;;;13.50;99.60;;;;;;5090215;28;20571;-58
2022/08/31 04:52:02;;;;;;;3.47;1.60;;;13.60;99.50;;;;;;5090664;28;20438;-58
2022/08/31 04:54:29;;;;;;;5.00;2.73;;;13.60;99.40;;;;;;5089947;28;20533;-58
2022/08/31 04:56:58;;;;;;;2.50;1.20;;;13.70;99.40;;;;;;5090725;28;20446;-58
2022/08/31 04:59:26;;;;;;;2.17;1.50;;;13.70;99.30;;;;;;5083154;28;20459;-58
2022/08/31 05:01:55;;;;;;;2.57;1.33;;;13.70;99.30;;;;;;5080495;28;20458;-58
2022/08/31 05:04:23;;;;;;;2.13;1.20;;;13.70;99.20;;;;;;5078008;28;20453;-58
2022/08/31 05:06:51;;;;;;;2.77;1.53;;;13.80;99.20;;;;;;5078658;28;20511;-57
2022/08/31 05:09:22;;;;;;;2.60;1.30;;;13.80;99.10;;;;;;5082130;28;20569;-59
2022/08/31 05:11:51;;;;;;;2.70;1.10;;;13.80;99.10;;;;;;5074630;28;20519;-58
2022/08/31 05:14:18;;;;;;;1.30;1.13;;;13.90;99.10;;;;;;5081872;28;20545;-58
2022/08/31 05:16:46;;;;;;;2.43;1.27;;;13.90;99.10;;;;;;5080401;28;21034;-57
2022/08/31 05:19:15;;;;;;;2.23;1.30;;;13.90;99.00;;;;;;5083667;28;20459;-56
2022/08/31 05:21:43;;;;;;;1.93;1.60;;;14.00;98.90;;;;;;5063103;28;20864;-56
2022/08/31 05:24:12;;;;;;;4.33;1.40;;;14.00;98.80;;;;;;5056254;28;20482;-57
2022/08/31 05:26:43;;;;;;;2.80;1.53;;;14.00;98.80;;;;;;5056195;28;20494;-56
2022/08/31 05:29:12;;;;;;;4.03;1.97;;;14.10;98.80;;;;;;5056486;28;20483;-57
2022/08/31 05:31:39;;;;;;;1.70;1.60;;;14.20;98.80;;;;;;5056549;28;20487;-56
2022/08/31 05:34:07;;;;;;;4.63;1.40;;;14.20;98.60;;;;;;5059583;28;20448;-56
2022/08/31 05:36:36;;;;;;;2.63;1.50;;;14.20;98.50;;;;;;5075008;28;20439;-56
2022/08/31 05:39:10;;;;;;;1.60;1.17;;;14.20;98.50;;;;;;5071228;28;20514;-58
2022/08/31 05:41:38;;;;;;;1.87;1.50;;;14.30;98.50;;;;;;5055799;28;20430;-57
2022/08/31 05:44:06;;;;;;;3.37;1.47;;;14.30;98.50;;;;;;5056817;28;20444;-57
2022/08/31 05:46:34;;;;;;;1.53;1.43;;;14.30;98.50;;;;;;5061723;28;20448;-59
2022/08/31 05:49:01;;;;;;;1.70;1.30;;;14.30;98.40;;;;;;5067617;28;20479;-57
2022/08/31 05:51:28;;;;;;;3.97;1.70;;;14.40;98.40;;;;;;5055579;28;20491;-58
2022/08/31 05:53:58;;;;;;;1.83;1.40;;;14.50;98.40;;;;;;5055373;28;20923;-58
2022/08/31 05:56:26;;;;;;;4.17;1.73;;;14.50;98.20;;;;;;5056326;28;20495;-59
2022/08/31 05:58:55;;;;;;;2.37;1.20;;;14.50;98.20;;;;;;5055205;28;20472;-58
2022/08/31 06:01:24;;;;;;;1.70;1.53;;;14.70;98.10;;;;;;5055068;28;20539;-57
2022/08/31 06:03:53;;;;;;;2.97;1.47;;;14.80;97.90;;;;;;5055816;28;20482;-57
2022/08/31 06:06:20;;;;;;;2.70;1.20;;;14.90;97.70;;;;;;5056201;28;20440;-59
2022/08/31 06:08:50;;;;;;;7.40;1.70;;;15.00;97.50;;;;;;5056172;28;20494;-58
2022/08/31 06:11:21;;;;;;;1.93;1.30;;;15.00;97.30;;;;;;5073710;28;20505;-57
2022/08/31 06:13:51;;;;;;;1.40;1.07;;;15.00;97.20;;;;;;5076303;28;20470;-57
2022/08/31 06:16:19;;;;;;;5.97;1.63;;;15.00;97.10;;;;;;5075411;28;20497;-58
2022/08/31 06:18:49;;;;;;;1.93;1.40;;;15.10;97.10;;;;;;5075601;28;20547;-58
2022/08/31 06:21:19;;;;;;;2.40;1.90;;;15.10;97.10;;;;;;5072744;28;20544;-58
2022/08/31 06:23:48;;;;;;;1.27;1.13;;;15.20;97.00;;;;;;5056384;28;20433;-58
2022/08/31 06:26:19;;;;;;;2.73;1.37;;;15.40;96.70;;;;;;5058458;28;20444;-58
2022/08/31 06:28:48;;;;;;;2.77;1.40;;;15.60;96.30;;;;;;5072196;28;20601;-59
2022/08/31 06:31:18;;;;;;;1.23;1.13;;;15.70;95.90;;;;;;5060466;28;20448;-58
2022/08/31 06:33:46;;;;;;;1.63;1.30;;;15.90;95.60;;;;;;5056821;28;20439;-58
2022/08/31 06:36:15;;;;;;;1.67;1.30;;;16.00;95.30;;;;;;5056613;28;20543;-58
2022/08/31 06:38:43;;;;;;;3.90;1.53;;;16.10;95.00;;;;;;5055996;28;20551;-57
2022/08/31 06:41:15;;;;;;;1.93;1.30;;;16.10;94.70;;;;;;5056243;28;20515;-57
2022/08/31 06:43:45;;;;;;;3.87;1.77;;;16.10;94.60;;;;;;5058106;28;20448;-60
2022/08/31 06:46:14;;;;;;;2.13;1.90;;;16.10;94.50;;;;;;5058157;28;20499;-58
2022/08/31 06:48:41;;;;;;;5.23;1.77;;;16.10;94.50;;;;;;5060729;28;20468;-60
2022/08/31 06:51:10;;;;;;;4.70;1.47;;;16.20;94.50;;;;;;5057408;28;20479;-56
2022/08/31 06:53:41;;;;;;;1.63;1.53;;;16.30;94.30;;;;;;5055452;28;20475;-56
2022/08/31 06:56:11;;;;;;;2.30;1.50;;;16.30;94.10;;;;;;5055203;28;20461;-57
2022/08/31 06:58:39;;;;;;;4.23;1.60;;;16.30;94.00;;;;;;5055293;28;20503;-56
2022/08/31 07:01:10;;;;;;;3.10;1.30;;;16.30;93.90;;;;;;5085936;23;20497;-55
2022/08/31 07:03:38;;;;;;;2.20;1.47;;;16.40;93.80;;;;;;5054337;28;20445;-55
2022/08/31 07:06:09;;;;;;;2.10;1.20;;;16.40;93.70;;;;;;5053309;28;20452;-55
2022/08/31 07:08:36;;;;;;;2.37;1.60;;;16.30;93.80;;;;;;5053431;28;20519;-55
2022/08/31 07:11:04;;;;;;;3.60;1.60;;;16.40;93.80;;;;;;5053093;28;20467;-55
2022/08/31 07:13:31;;;;;;;1.90;1.57;;;16.50;93.80;;;;;;5053036;28;20449;-55
2022/08/31 07:16:09;;;;;;;3.47;1.80;;;16.60;93.50;;;;;;5053019;28;20535;-55
2022/08/31 07:18:36;;;;;;;2.03;1.20;;;16.70;93.30;;;;;;5053520;28;20792;-55
2022/08/31 07:21:12;;;;;;;3.70;1.80;;;16.90;92.90;;;;;;5052905;28;20984;-55
2022/08/31 07:23:40;;;;;;;2.33;1.23;;;16.90;92.60;;;;;;5052817;28;20868;-55
2022/08/31 07:26:08;;;;;;;1.97;1.10;;;17.00;92.40;;;;;;5052909;28;20476;-55
2022/08/31 07:28:37;;;;;;;1.73;1.40;;;17.10;92.20;;;;;;5052998;28;20479;-53
2022/08/31 07:31:05;;;;;;;2.20;1.23;;;17.20;92.00;;;;;;5052777;28;20487;-55
2022/08/31 07:33:38;;;;;;;1.23;1.00;;;17.30;91.80;;;;;;5053247;28;20551;-55
2022/08/31 07:36:07;;;;;;;5.80;1.43;;;17.30;91.60;;;;;;5053018;28;20425;-55
2022/08/31 07:44:18;;;;;;;7.70;1.30;;;17.70;90.80;;;;;;5052497;28;20429;-54
2022/08/31 07:46:46;;;;;;;2.30;0.90;;;17.80;90.50;;;;;;5052932;28;20448;-55
2022/08/31 07:49:15;;;;;;;4.23;1.50;;;17.90;90.20;;;;;;5052545;28;20889;-55
2022/08/31 07:51:49;;;;;;;1.33;1.10;;;17.90;90.00;;;;;;5053107;28;20979;-56
2022/08/31 07:54:19;;;;;;;2.03;1.10;;;17.90;89.50;;;;;;5053173;28;20440;-57
2022/08/31 07:56:50;;;;;;;2.20;1.33;;;17.80;89.50;;;;;;5052954;28;20446;-58
2022/08/31 07:59:18;;;;;;;2.87;1.27;;;17.90;89.80;;;;;;5053413;28;20436;-58
2022/08/31 08:01:45;;;;;;;2.00;1.37;;;18.00;89.20;;;;;;5052290;28;20558;-56
2022/08/31 08:04:24;;;;;;;1.47;1.07;;;18.10;88.50;;;;;;5053117;28;20480;-57
2022/08/31 08:06:54;;;;;;;3.13;1.60;;;18.20;87.90;;;;;;5053546;28;20436;-54
2022/08/31 08:09:22;;;;;;;2.70;1.20;;;18.20;87.90;;;;;;5052593;28;20472;-55
2022/08/31 08:11:56;;;;;;;1.90;1.30;;;18.20;87.80;;;;;;5052312;28;20471;-55
2022/08/31 08:14:24;;;;;;;2.43;1.30;;;18.30;87.70;;;;;;5052752;28;20432;-55
2022/08/31 08:16:52;;;;;;;4.30;1.23;;;18.30;87.10;;;;;;5052332;28;20526;-55
2022/08/31 08:19:20;;;;;;;6.33;1.07;;;18.40;87.00;;;;;;5052913;28;20523;-56
2022/08/31 08:21:48;;;;;;;1.80;0.80;;;18.30;86.90;;;;;;5052569;28;20555;-55
2022/08/31 08:24:16;;;;;;;2.80;1.20;;;18.20;86.70;;;;;;5052426;28;20440;-56
2022/08/31 08:26:44;;;;;;;1.83;1.20;;;18.20;86.70;;;;;;5052314;28;20495;-56
2022/08/31 08:29:12;;;;;;;4.33;1.67;;;18.20;86.80;;;;;;5052562;28;20440;-56
2022/08/31 08:31:41;;;;;;;1.83;1.20;;;18.20;86.70;;;;;;5052441;28;20468;-57
2022/08/31 08:34:08;;;;;;;3.00;1.30;;;18.20;86.60;;;;;;5052641;28;20807;-57
2022/08/31 08:36:39;;;;;;;1.87;0.93;;;18.20;86.10;;;;;;5052320;28;20534;-55
2022/08/31 08:39:08;;;;;;;1.57;1.07;;;18.10;86.10;;;;;;5052339;28;20424;-59
2022/08/31 08:41:40;;;;;;;3.33;1.60;;;18.10;86.40;;;;;;5051935;28;21022;-56
2022/08/31 08:44:10;;;;;;;2.03;1.13;;;18.00;85.90;;;;;;5052515;28;20511;-58
2022/08/31 08:46:46;;;;;;;5.17;1.33;;;18.10;86.00;;;;;;5052802;28;20427;-56
2022/08/31 08:49:22;;;;;;;3.70;1.43;;;18.00;85.80;;;;;;5052272;28;20497;-57
2022/08/31 08:51:54;;;;;;;2.23;1.13;;;18.00;85.80;;;;;;5052165;28;20883;-55
2022/08/31 08:54:31;;;;;;;1.53;1.23;;;18.10;86.10;;;;;;5052164;28;20531;-54
2022/08/31 08:56:59;;;;;;;2.60;1.37;;;18.20;85.80;;;;;;5056222;28;20511;-54
2022/08/31 08:59:27;;;;;;;1.20;1.07;;;18.40;85.10;;;;;;5055687;28;20458;-55
2022/08/31 09:02:00;;;;;;;2.20;1.17;;;18.60;83.80;;;;;;5056219;28;20521;-55
2022/08/31 09:04:58;;;;;;;3.20;1.20;;;18.70;83.00;;;;;;5056690;28;20436;-55
2022/08/31 09:08:09;;;;;;;3.47;1.40;;;18.80;82.50;;;;;;5055939;28;20428;-55
2022/08/31 09:10:41;;;;;;;3.13;1.50;;;18.90;81.90;;;;;;5055331;28;21057;-56
2022/08/31 09:13:35;;;;;;;4.03;1.67;;;19.10;80.80;;;;;;5056149;28;20448;-55
2022/08/31 09:16:19;;;;;;;6.37;1.57;;;19.20;79.40;;;;;;5055858;28;20432;-55
2022/08/31 09:18:52;;;;;;;2.93;1.70;;;19.30;78.20;;;;;;5055533;28;20456;-55
2022/08/31 09:21:24;;;;;;;1.57;1.30;;;19.30;77.60;;;;;;5055540;28;20550;-56
2022/08/31 09:24:01;;;;;;;1.07;0.97;;;19.30;76.90;;;;;;5055850;28;20916;-55
2022/08/31 09:26:32;;;;;;;1.90;1.67;;;19.50;76.10;;;;;;5055588;28;20420;-55
2022/08/31 09:29:02;;;;;;;2.37;1.20;;;19.60;75.50;;;;;;5055823;28;20465;-55
2022/08/31 09:31:37;;;;;;;3.17;1.50;;;19.70;74.10;;;;;;5055376;28;20744;-55
2022/08/31 09:34:13;;;;;;;2.30;1.23;;;19.70;72.60;;;;;;5055258;28;20435;-56
2022/08/31 09:36:41;;;;;;;1.73;1.03;;;19.70;71.80;;;;;;5055087;28;20502;-55
2022/08/31 09:39:18;;;;;;;2.70;1.40;;;19.70;71.40;;;;;;5055247;28;20527;-55
2022/08/31 09:41:47;;;;;;;1.70;1.40;;;19.90;70.90;;;;;;5055142;28;20551;-56
2022/08/31 09:44:29;;;;;;;6.57;3.00;;;20.10;69.40;;;;;;5055543;28;20456;-55
2022/08/31 09:47:01;;;;;;;4.70;1.60;;;20.20;67.00;;;;;;5055176;28;20439;-55
2022/08/31 09:49:30;;;;;;;2.10;1.20;;;20.20;65.70;;;;;;5055112;28;20432;-55
2022/08/31 09:52:16;;;;;;;6.37;1.30;;;20.30;64.90;;;;;;5054779;28;20511;-56
2022/08/31 09:57:49;;;;;;;2.20;1.20;;;20.40;63.30;;;;;;5055542;28;20471;-55
2022/08/31 10:00:27;;;;;;;2.30;1.90;;;20.60;62.20;;;;;;5054826;28;20436;-55
2022/08/31 10:02:58;;;;;;;2.37;1.07;;;20.80;60.90;;;;;;5054643;28;20475;-56
2022/08/31 10:05:39;;;;;;;1.20;1.00;;;20.90;59.20;;;;;;5054725;28;20445;-55
2022/08/31 10:08:19;;;;;;;2.10;1.37;;;20.90;58.60;;;;;;5054557;28;20456;-56
2022/08/31 10:10:51;;;;;;;1.33;1.17;;;21.10;58.20;;;;;;5054096;28;20516;-55
2022/08/31 10:13:22;;;;;;;2.40;1.47;;;21.40;57.30;;;;;;5054680;28;20516;-55
2022/08/31 10:15:53;;;;;;;4.13;1.40;;;21.40;55.70;;;;;;5054732;28;20529;-55
2022/08/31 10:18:31;;;;;;;1.50;1.10;;;21.50;55.10;;;;;;5054130;28;20439;-58
2022/08/31 10:21:04;;;;;;;3.20;1.20;;;21.50;53.90;;;;;;5054103;28;20528;-57
2022/08/31 10:23:36;;;;;;;2.93;2.10;;;21.50;53.60;;;;;;5054522;28;20434;-57
2022/08/31 10:26:11;;;;;;;2.33;1.10;;;21.40;53.70;;;;;;5055205;28;20433;-57
2022/08/31 10:28:47;;;;;;;1.40;1.10;;;21.40;53.90;;;;;;5054862;28;20432;-57
2022/08/31 10:31:22;;;;;;;4.00;1.30;;;21.50;53.90;;;;;;5054133;28;20486;-56
2022/08/31 10:36:42;;;;;;;2.60;1.33;;;21.90;51.10;;;;;;5054688;28;20426;-56
2022/08/31 10:39:20;;;;;;;1.67;1.10;;;22.00;50.00;;;;;;5054534;28;20528;-57
2022/08/31 10:41:50;;;;;;;1.40;1.17;;;22.00;49.80;;;;;;5054200;28;20466;-55
2022/08/31 10:44:25;;;;;;;1.60;0.93;;;22.10;49.80;;;;;;5054757;28;20450;-56
2022/08/31 10:46:57;;;;;;;1.77;1.07;;;22.20;49.80;;;;;;5054788;28;20466;-55
2022/08/31 10:49:25;;;;;;;2.27;1.30;;;22.30;49.10;;;;;;5053982;28;20519;-56
2022/08/31 10:52:01;;;;;;;2.20;1.30;;;22.30;47.90;;;;;;5054154;28;20556;-55
2022/08/31 10:54:40;;;;;;;5.33;1.33;;;22.20;47.60;;;;;;5053581;28;20918;-55
2022/08/31 10:57:22;;;;;;;1.60;1.27;;;22.30;47.70;;;;;;5054118;28;20524;-55
2022/08/31 10:59:57;;;;;;;1.50;1.17;;;22.40;48.20;;;;;;5053979;28;20428;-56
2022/08/31 11:02:47;;;;;;;1.20;1.10;;;22.40;48.20;;;;;;5053362;28;20514;-56
2022/08/31 11:05:34;;;;;;;2.40;1.27;;;22.40;47.30;;;;;;5053413;28;21001;-55
2022/08/31 11:08:27;;;;;;;2.73;1.20;;;22.30;46.80;;;;;;5052958;28;20963;-55
2022/08/31 11:10:58;;;;;;;2.43;1.20;;;22.20;47.30;;;;;;5053268;28;20491;-55
2022/08/31 11:13:59;;;;;;;2.33;1.23;;;22.30;47.70;;;;;;5053471;28;20450;-55
2022/08/31 11:16:48;;;;;;;2.57;1.00;;;22.40;48.00;;;;;;5053824;28;20527;-55
2022/08/31 11:19:49;;;;;;;1.87;1.63;;;22.40;47.50;;;;;;5053210;28;20436;-55
2022/08/31 11:22:45;;;;;;;4.17;3.37;;;22.40;47.10;;;;;;5052933;28;20992;-56
2022/08/31 11:25:37;;;;;;;2.03;1.30;;;22.40;46.80;;;;;;5053244;28;20455;-55
2022/08/31 11:28:10;;;;;;;3.40;1.77;;;22.40;46.20;;;;;;5053132;28;20859;-55
2022/08/31 11:30:45;;;;;;;3.70;1.30;;;22.40;46.30;;;;;;5052921;28;20564;-56
2022/08/31 11:33:18;;;;;;;1.93;1.20;;;22.60;46.40;;;;;;5053078;28;20437;-54
2022/08/31 11:36:04;;;;;;;1.83;1.30;;;22.80;46.50;;;;;;5052627;28;20446;-55
2022/08/31 11:38:51;;;;;;;2.03;0.97;;;22.90;46.40;;;;;;5052779;28;20436;-56
2022/08/31 11:41:45;;;;;;;1.60;1.17;;;23.20;45.90;;;;;;5053038;28;20471;-56
2022/08/31 11:45:06;;;;;;;1.87;1.07;;;23.10;43.90;;;;;;5052800;28;20432;-55
2022/08/31 11:47:42;;;;;;;1.03;0.93;;;23.10;44.10;;;;;;5053003;28;20876;-55
2022/08/31 11:50:54;;;;;;;1.80;1.00;;;23.10;44.40;;;;;;5052749;28;20537;-55
2022/08/31 11:53:31;;;;;;;2.33;0.80;;;23.40;44.20;;;;;;5052336;28;20528;-54
2022/08/31 11:56:05;;;;;;;2.93;1.40;;;23.60;43.20;;;;;;5052889;28;20526;-55
2022/08/31 11:58:36;;;;;;;1.30;1.13;;;23.60;43.10;;;;;;5053146;28;20428;-56
2022/08/31 12:01:43;;;;;;;1.37;1.03;;;23.60;43.10;;;;;;5053163;28;20475;-56
2022/08/31 12:04:46;;;;;;;1.93;1.10;;;23.70;43.30;;;;;;5019730;28;20495;-56
2022/08/31 12:07:27;;;;;;;5.53;0.93;;;24.00;42.80;;;;;;5052091;28;20455;-55
2022/08/31 12:10:25;;;;;;;4.27;0.93;;;24.20;41.50;;;;;;5052524;28;20520;-55
2022/08/31 12:13:29;;;;;;;3.23;1.00;;;24.40;40.50;;;;;;5052133;28;20508;-55
2022/08/31 12:16:41;;;;;;;1.83;0.97;;;24.80;40.10;;;;;;5052294;28;20936;-55
2022/08/31 12:25:48;;;;;;;1.30;1.10;;;24.50;40.90;;;;;;5052549;28;20399;-56
2022/08/31 12:28:24;;;;;;;1.30;1.00;;;24.00;40.60;;;;;;5052140;28;20547;-55
2022/08/31 12:30:54;;;;;;;2.63;1.00;;;23.70;38.80;;;;;;5054623;28;20597;-55
2022/08/31 12:33:25;;;;;;;3.30;1.43;;;23.60;38.10;;;;;;5056477;28;20504;-57
2022/08/31 12:35:56;;;;;;;1.77;1.00;;;23.50;37.50;;;;;;5056824;28;20988;-55
2022/08/31 12:38:26;;;;;;;2.27;1.10;;;23.50;37.60;;;;;;5057494;28;20440;-55
2022/08/31 12:40:56;;;;;;;2.93;1.10;;;23.50;37.70;;;;;;5056948;28;20470;-55
2022/08/31 12:43:27;;;;;;;1.30;1.00;;;23.60;37.80;;;;;;5057684;28;20436;-55
2022/08/31 12:46:33;;;;;;;1.10;0.83;;;23.70;37.90;;;;;;5056588;28;20437;-55
2022/08/31 12:49:48;;;;;;;4.93;1.10;;;23.70;39.30;;;;;;5057911;28;20432;-55
2022/08/31 12:52:32;;;;;;;4.13;1.30;;;23.60;40.30;;;;;;4994188;28;20506;-55
2022/08/31 12:55:13;;;;;;;2.80;1.07;;;23.70;40.90;;;;;;5055866;28;20562;-55
2022/08/31 12:57:53;;;;;;;3.10;1.20;;;23.70;41.40;;;;;;5056724;28;20432;-55
2022/08/31 13:00:25;;;;;;;4.33;2.00;;;23.70;41.60;;;;;;5056999;28;20551;-55
2022/08/31 13:02:55;;;;;;;1.23;1.07;;;23.80;41.60;;;;;;5060000;22;20519;-59
2022/08/31 13:05:25;;;;;;;2.90;1.00;;;23.80;41.30;;;;;;5036676;28;20459;-59
2022/08/31 13:07:53;;;;;;;3.47;0.90;;;23.70;41.40;;;;;;5036376;28;20527;-57
2022/08/31 13:10:31;;;;;;;1.80;1.20;;;23.60;41.80;;;;;;5036159;28;20929;-59
2022/08/31 13:13:02;;;;;;;2.30;1.17;;;23.60;41.90;;;;;;5036491;28;20505;-60
2022/08/31 13:15:33;;;;;;;1.67;1.10;;;23.60;41.50;;;;;;5036807;28;20444;-60
2022/08/31 13:18:01;;;;;;;1.37;0.87;;;23.60;41.30;;;;;;5036840;28;20488;-60
2022/08/31 13:20:42;;;;;;;1.67;1.10;;;23.70;40.70;;;;;;5036262;28;20870;-57
2022/08/31 13:23:13;;;;;;;2.03;1.20;;;23.60;40.30;;;;;;5036189;28;20465;-59
2022/08/31 13:25:40;;;;;;;2.80;1.17;;;23.60;40.30;;;;;;5035727;28;20886;-59
2022/08/31 13:28:24;;;;;;;1.20;0.70;;;23.60;39.90;;;;;;5035616;28;20531;-59
2022/08/31 13:30:57;;;;;;;3.80;1.00;;;23.70;39.50;;;;;;5035793;28;20475;-60
2022/08/31 13:33:30;;;;;;;1.57;1.20;;;23.70;38.90;;;;;;5036116;28;20988;-59
2022/08/31 13:36:03;;;;;;;1.40;1.00;;;23.70;38.50;;;;;;5035748;28;20922;-59